sensor_id;sensor_type;location;lat;lon;timestamp;P1;durP1;ratioP1;P2;durP2;ratioP2
62582;SDS011;48641;51.676;5.808;2023-05-07T00:00:24;2.78;;;1.40;;
62582;SDS011;48641;51.676;5.808;2023-05-07T00:02:50;2.22;;;1.27;;
62582;SDS011;48641;51.676;5.808;2023-05-07T00:05:16;2.92;;;1.30;;
62582;SDS011;48641;51.676;5.808;2023-05-07T00:07:42;3.72;;;1.40;;
62582;SDS011;48641;51.676;5.808;2023-05-07T00:10:08;3.00;;;1.38;;
62582;SDS011;48641;51.676;5.808;2023-05-07T00:12:35;3.25;;;1.52;;
62582;SDS011;48641;51.676;5.808;2023-05-07T00:15:01;3.70;;;1.40;;
62582;SDS011;48641;51.676;5.808;2023-05-07T00:17:29;3.28;;;1.35;;
62582;SDS011;48641;51.676;5.808;2023-05-07T00:19:54;3.13;;;1.33;;
62582;SDS011;48641;51.676;5.808;2023-05-07T00:22:20;2.95;;;1.30;;
62582;SDS011;48641;51.676;5.808;2023-05-07T00:24:46;3.28;;;1.60;;
62582;SDS011;48641;51.676;5.808;2023-05-07T00:27:11;3.45;;;1.45;;
62582;SDS011;48641;51.676;5.808;2023-05-07T00:29:37;2.83;;;1.20;;
62582;SDS011;48641;51.676;5.808;2023-05-07T00:32:03;3.42;;;1.52;;
62582;SDS011;48641;51.676;5.808;2023-05-07T00:34:28;2.88;;;1.45;;
62582;SDS011;48641;51.676;5.808;2023-05-07T00:36:54;3.03;;;1.40;;
62582;SDS011;48641;51.676;5.808;2023-05-07T00:39:20;2.80;;;1.17;;
62582;SDS011;48641;51.676;5.808;2023-05-07T00:41:45;3.15;;;1.40;;
62582;SDS011;48641;51.676;5.808;2023-05-07T00:44:12;2.90;;;1.40;;
62582;SDS011;48641;51.676;5.808;2023-05-07T00:46:38;2.28;;;1.30;;
62582;SDS011;48641;51.676;5.808;2023-05-07T00:49:03;4.57;;;1.48;;
62582;SDS011;48641;51.676;5.808;2023-05-07T00:51:30;3.08;;;1.48;;
62582;SDS011;48641;51.676;5.808;2023-05-07T00:53:59;2.83;;;1.40;;
62582;SDS011;48641;51.676;5.808;2023-05-07T00:56:27;3.30;;;1.60;;
62582;SDS011;48641;51.676;5.808;2023-05-07T00:58:53;3.15;;;1.40;;
62582;SDS011;48641;51.676;5.808;2023-05-07T01:01:18;2.58;;;1.33;;
62582;SDS011;48641;51.676;5.808;2023-05-07T01:03:44;3.13;;;1.58;;
62582;SDS011;48641;51.676;5.808;2023-05-07T01:06:10;3.03;;;1.45;;
62582;SDS011;48641;51.676;5.808;2023-05-07T01:08:37;2.70;;;1.30;;
62582;SDS011;48641;51.676;5.808;2023-05-07T01:11:07;2.90;;;1.55;;
62582;SDS011;48641;51.676;5.808;2023-05-07T01:13:34;2.92;;;1.60;;
62582;SDS011;48641;51.676;5.808;2023-05-07T01:16:00;3.78;;;1.60;;
62582;SDS011;48641;51.676;5.808;2023-05-07T01:18:26;2.75;;;1.50;;
62582;SDS011;48641;51.676;5.808;2023-05-07T01:20:54;2.25;;;1.13;;
62582;SDS011;48641;51.676;5.808;2023-05-07T01:23:23;3.55;;;1.50;;
62582;SDS011;48641;51.676;5.808;2023-05-07T01:25:53;3.42;;;1.40;;
62582;SDS011;48641;51.676;5.808;2023-05-07T01:28:19;3.20;;;1.38;;
62582;SDS011;48641;51.676;5.808;2023-05-07T01:30:50;3.45;;;1.52;;
62582;SDS011;48641;51.676;5.808;2023-05-07T01:33:21;2.63;;;1.33;;
62582;SDS011;48641;51.676;5.808;2023-05-07T01:35:49;3.00;;;1.40;;
62582;SDS011;48641;51.676;5.808;2023-05-07T01:38:18;3.90;;;1.50;;
62582;SDS011;48641;51.676;5.808;2023-05-07T01:40:44;2.88;;;1.50;;
62582;SDS011;48641;51.676;5.808;2023-05-07T01:43:10;2.22;;;1.20;;
62582;SDS011;48641;51.676;5.808;2023-05-07T01:45:36;2.67;;;1.30;;
62582;SDS011;48641;51.676;5.808;2023-05-07T01:48:03;3.42;;;1.60;;
62582;SDS011;48641;51.676;5.808;2023-05-07T01:50:29;3.10;;;1.50;;
62582;SDS011;48641;51.676;5.808;2023-05-07T01:52:56;3.33;;;1.73;;
62582;SDS011;48641;51.676;5.808;2023-05-07T01:55:22;3.25;;;1.60;;
62582;SDS011;48641;51.676;5.808;2023-05-07T01:57:48;2.35;;;1.35;;
62582;SDS011;48641;51.676;5.808;2023-05-07T02:00:14;2.78;;;1.50;;
62582;SDS011;48641;51.676;5.808;2023-05-07T02:02:40;3.28;;;1.55;;
62582;SDS011;48641;51.676;5.808;2023-05-07T02:05:05;3.20;;;1.40;;
62582;SDS011;48641;51.676;5.808;2023-05-07T02:07:31;3.60;;;1.42;;
62582;SDS011;48641;51.676;5.808;2023-05-07T02:09:57;4.30;;;1.70;;
62582;SDS011;48641;51.676;5.808;2023-05-07T02:12:22;2.15;;;1.30;;
62582;SDS011;48641;51.676;5.808;2023-05-07T02:14:48;3.83;;;1.45;;
62582;SDS011;48641;51.676;5.808;2023-05-07T02:17:14;3.42;;;1.50;;
62582;SDS011;48641;51.676;5.808;2023-05-07T02:19:40;2.88;;;1.55;;
62582;SDS011;48641;51.676;5.808;2023-05-07T02:22:05;2.67;;;1.40;;
62582;SDS011;48641;51.676;5.808;2023-05-07T02:24:31;2.88;;;1.50;;
62582;SDS011;48641;51.676;5.808;2023-05-07T02:26:57;2.78;;;1.50;;
62582;SDS011;48641;51.676;5.808;2023-05-07T02:29:22;3.90;;;1.60;;
62582;SDS011;48641;51.676;5.808;2023-05-07T02:31:48;2.90;;;1.52;;
62582;SDS011;48641;51.676;5.808;2023-05-07T02:34:18;3.10;;;1.40;;
62582;SDS011;48641;51.676;5.808;2023-05-07T02:36:43;4.72;;;1.60;;
62582;SDS011;48641;51.676;5.808;2023-05-07T02:39:10;2.58;;;1.40;;
62582;SDS011;48641;51.676;5.808;2023-05-07T02:41:36;3.85;;;1.80;;
62582;SDS011;48641;51.676;5.808;2023-05-07T02:44:02;4.13;;;1.63;;
62582;SDS011;48641;51.676;5.808;2023-05-07T02:46:28;3.05;;;1.73;;
62582;SDS011;48641;51.676;5.808;2023-05-07T02:48:53;3.60;;;1.80;;
62582;SDS011;48641;51.676;5.808;2023-05-07T02:51:19;2.83;;;1.40;;
62582;SDS011;48641;51.676;5.808;2023-05-07T02:53:46;4.15;;;1.90;;
62582;SDS011;48641;51.676;5.808;2023-05-07T02:56:12;3.50;;;1.55;;
62582;SDS011;48641;51.676;5.808;2023-05-07T02:58:37;2.95;;;1.65;;
62582;SDS011;48641;51.676;5.808;2023-05-07T03:01:07;4.22;;;1.65;;
62582;SDS011;48641;51.676;5.808;2023-05-07T03:03:32;4.32;;;1.80;;
62582;SDS011;48641;51.676;5.808;2023-05-07T03:05:58;3.33;;;1.60;;
62582;SDS011;48641;51.676;5.808;2023-05-07T03:08:24;4.38;;;1.55;;
62582;SDS011;48641;51.676;5.808;2023-05-07T03:10:50;3.65;;;1.50;;
62582;SDS011;48641;51.676;5.808;2023-05-07T03:13:16;3.53;;;1.70;;
62582;SDS011;48641;51.676;5.808;2023-05-07T03:15:41;3.92;;;1.70;;
62582;SDS011;48641;51.676;5.808;2023-05-07T03:18:07;3.42;;;1.60;;
62582;SDS011;48641;51.676;5.808;2023-05-07T03:20:33;4.18;;;1.70;;
62582;SDS011;48641;51.676;5.808;2023-05-07T03:22:58;3.53;;;1.50;;
62582;SDS011;48641;51.676;5.808;2023-05-07T03:25:24;3.97;;;1.88;;
62582;SDS011;48641;51.676;5.808;2023-05-07T03:27:50;3.15;;;1.70;;
62582;SDS011;48641;51.676;5.808;2023-05-07T03:30:16;3.50;;;1.60;;
62582;SDS011;48641;51.676;5.808;2023-05-07T03:32:42;4.20;;;2.00;;
62582;SDS011;48641;51.676;5.808;2023-05-07T03:35:07;3.20;;;1.80;;
62582;SDS011;48641;51.676;5.808;2023-05-07T03:37:33;3.08;;;1.60;;
62582;SDS011;48641;51.676;5.808;2023-05-07T03:39:59;3.38;;;1.90;;
62582;SDS011;48641;51.676;5.808;2023-05-07T03:42:24;3.65;;;1.80;;
62582;SDS011;48641;51.676;5.808;2023-05-07T03:44:50;3.72;;;1.90;;
62582;SDS011;48641;51.676;5.808;2023-05-07T03:47:16;3.53;;;1.83;;
62582;SDS011;48641;51.676;5.808;2023-05-07T03:49:41;3.55;;;1.92;;
62582;SDS011;48641;51.676;5.808;2023-05-07T03:52:07;3.70;;;1.83;;
62582;SDS011;48641;51.676;5.808;2023-05-07T03:54:33;3.17;;;1.63;;
62582;SDS011;48641;51.676;5.808;2023-05-07T03:56:58;2.70;;;1.40;;
62582;SDS011;48641;51.676;5.808;2023-05-07T03:59:24;3.15;;;1.52;;
62582;SDS011;48641;51.676;5.808;2023-05-07T04:01:49;3.70;;;1.67;;
62582;SDS011;48641;51.676;5.808;2023-05-07T04:04:15;5.38;;;2.17;;
62582;SDS011;48641;51.676;5.808;2023-05-07T04:06:41;4.13;;;1.63;;
62582;SDS011;48641;51.676;5.808;2023-05-07T04:09:10;4.50;;;1.98;;
62582;SDS011;48641;51.676;5.808;2023-05-07T04:11:35;3.63;;;1.92;;
62582;SDS011;48641;51.676;5.808;2023-05-07T04:14:01;4.40;;;2.00;;
62582;SDS011;48641;51.676;5.808;2023-05-07T04:16:27;3.25;;;1.75;;
62582;SDS011;48641;51.676;5.808;2023-05-07T04:18:52;4.28;;;1.98;;
62582;SDS011;48641;51.676;5.808;2023-05-07T04:21:19;3.03;;;1.70;;
62582;SDS011;48641;51.676;5.808;2023-05-07T04:23:45;3.92;;;1.92;;
62582;SDS011;48641;51.676;5.808;2023-05-07T04:26:12;4.18;;;2.10;;
62582;SDS011;48641;51.676;5.808;2023-05-07T04:28:38;3.08;;;1.75;;
62582;SDS011;48641;51.676;5.808;2023-05-07T04:31:04;3.45;;;1.83;;
62582;SDS011;48641;51.676;5.808;2023-05-07T04:33:30;4.00;;;1.85;;
62582;SDS011;48641;51.676;5.808;2023-05-07T04:35:56;2.90;;;1.60;;
62582;SDS011;48641;51.676;5.808;2023-05-07T04:38:22;4.00;;;1.98;;
62582;SDS011;48641;51.676;5.808;2023-05-07T04:40:48;3.67;;;1.92;;
62582;SDS011;48641;51.676;5.808;2023-05-07T04:43:14;3.90;;;1.92;;
62582;SDS011;48641;51.676;5.808;2023-05-07T04:45:41;3.72;;;1.85;;
62582;SDS011;48641;51.676;5.808;2023-05-07T04:48:06;3.40;;;1.75;;
62582;SDS011;48641;51.676;5.808;2023-05-07T04:50:33;3.45;;;1.70;;
62582;SDS011;48641;51.676;5.808;2023-05-07T04:52:59;3.63;;;1.77;;
62582;SDS011;48641;51.676;5.808;2023-05-07T04:55:24;4.15;;;2.05;;
62582;SDS011;48641;51.676;5.808;2023-05-07T04:57:51;3.72;;;1.80;;
62582;SDS011;48641;51.676;5.808;2023-05-07T05:00:17;3.65;;;1.80;;
62582;SDS011;48641;51.676;5.808;2023-05-07T05:02:44;4.25;;;1.90;;
62582;SDS011;48641;51.676;5.808;2023-05-07T05:05:10;3.83;;;1.70;;
62582;SDS011;48641;51.676;5.808;2023-05-07T05:07:36;3.58;;;1.85;;
62582;SDS011;48641;51.676;5.808;2023-05-07T05:10:02;3.65;;;1.83;;
62582;SDS011;48641;51.676;5.808;2023-05-07T05:12:30;4.00;;;1.75;;
62582;SDS011;48641;51.676;5.808;2023-05-07T05:14:56;4.47;;;1.77;;
62582;SDS011;48641;51.676;5.808;2023-05-07T05:17:21;3.80;;;1.88;;
62582;SDS011;48641;51.676;5.808;2023-05-07T05:19:48;5.45;;;2.22;;
62582;SDS011;48641;51.676;5.808;2023-05-07T05:22:13;3.42;;;1.77;;
62582;SDS011;48641;51.676;5.808;2023-05-07T05:24:39;4.43;;;2.03;;
62582;SDS011;48641;51.676;5.808;2023-05-07T05:27:04;4.40;;;2.00;;
62582;SDS011;48641;51.676;5.808;2023-05-07T05:29:30;4.28;;;2.00;;
62582;SDS011;48641;51.676;5.808;2023-05-07T05:31:56;4.32;;;1.85;;
62582;SDS011;48641;51.676;5.808;2023-05-07T05:34:22;3.83;;;2.03;;
62582;SDS011;48641;51.676;5.808;2023-05-07T05:36:48;3.25;;;1.65;;
62582;SDS011;48641;51.676;5.808;2023-05-07T05:39:13;4.10;;;2.00;;
62582;SDS011;48641;51.676;5.808;2023-05-07T05:41:39;3.38;;;2.10;;
62582;SDS011;48641;51.676;5.808;2023-05-07T05:44:05;3.75;;;2.03;;
62582;SDS011;48641;51.676;5.808;2023-05-07T05:46:30;3.63;;;1.90;;
62582;SDS011;48641;51.676;5.808;2023-05-07T05:48:56;4.22;;;2.08;;
62582;SDS011;48641;51.676;5.808;2023-05-07T05:51:21;4.07;;;1.88;;
62582;SDS011;48641;51.676;5.808;2023-05-07T05:53:48;3.50;;;1.70;;
62582;SDS011;48641;51.676;5.808;2023-05-07T05:56:13;3.65;;;1.80;;
62582;SDS011;48641;51.676;5.808;2023-05-07T05:58:40;3.38;;;1.80;;
62582;SDS011;48641;51.676;5.808;2023-05-07T06:01:06;3.58;;;1.73;;
62582;SDS011;48641;51.676;5.808;2023-05-07T06:03:31;4.40;;;1.98;;
62582;SDS011;48641;51.676;5.808;2023-05-07T06:05:57;4.40;;;2.00;;
62582;SDS011;48641;51.676;5.808;2023-05-07T06:08:23;3.83;;;1.90;;
62582;SDS011;48641;51.676;5.808;2023-05-07T06:10:48;3.90;;;1.90;;
62582;SDS011;48641;51.676;5.808;2023-05-07T06:13:14;4.03;;;1.90;;
62582;SDS011;48641;51.676;5.808;2023-05-07T06:15:40;3.42;;;1.88;;
62582;SDS011;48641;51.676;5.808;2023-05-07T06:18:06;4.75;;;2.22;;
62582;SDS011;48641;51.676;5.808;2023-05-07T06:20:31;4.47;;;2.17;;
62582;SDS011;48641;51.676;5.808;2023-05-07T06:22:57;3.53;;;1.77;;
62582;SDS011;48641;51.676;5.808;2023-05-07T06:25:22;3.50;;;1.77;;
62582;SDS011;48641;51.676;5.808;2023-05-07T06:27:48;2.97;;;1.90;;
62582;SDS011;48641;51.676;5.808;2023-05-07T06:30:13;4.60;;;2.20;;
62582;SDS011;48641;51.676;5.808;2023-05-07T06:32:40;3.70;;;1.80;;
62582;SDS011;48641;51.676;5.808;2023-05-07T06:35:06;4.30;;;2.10;;
62582;SDS011;48641;51.676;5.808;2023-05-07T06:37:32;4.00;;;2.15;;
62582;SDS011;48641;51.676;5.808;2023-05-07T06:39:57;3.33;;;1.80;;
62582;SDS011;48641;51.676;5.808;2023-05-07T06:42:25;4.38;;;2.10;;
62582;SDS011;48641;51.676;5.808;2023-05-07T06:44:52;3.90;;;1.85;;
62582;SDS011;48641;51.676;5.808;2023-05-07T06:47:17;3.70;;;1.65;;
62582;SDS011;48641;51.676;5.808;2023-05-07T06:49:43;3.50;;;1.95;;
62582;SDS011;48641;51.676;5.808;2023-05-07T06:52:09;4.18;;;1.80;;
62582;SDS011;48641;51.676;5.808;2023-05-07T06:54:35;3.92;;;2.00;;
62582;SDS011;48641;51.676;5.808;2023-05-07T06:57:00;4.35;;;2.00;;
62582;SDS011;48641;51.676;5.808;2023-05-07T06:59:26;3.75;;;1.80;;
62582;SDS011;48641;51.676;5.808;2023-05-07T07:01:51;3.40;;;1.80;;
62582;SDS011;48641;51.676;5.808;2023-05-07T07:04:17;4.45;;;1.88;;
62582;SDS011;48641;51.676;5.808;2023-05-07T07:06:42;3.75;;;1.83;;
62582;SDS011;48641;51.676;5.808;2023-05-07T07:09:08;3.88;;;1.63;;
62582;SDS011;48641;51.676;5.808;2023-05-07T07:11:34;2.85;;;1.65;;
62582;SDS011;48641;51.676;5.808;2023-05-07T07:14:01;3.50;;;1.60;;
62582;SDS011;48641;51.676;5.808;2023-05-07T07:16:26;4.15;;;1.80;;
62582;SDS011;48641;51.676;5.808;2023-05-07T07:18:52;2.75;;;1.63;;
62582;SDS011;48641;51.676;5.808;2023-05-07T07:21:17;3.10;;;1.63;;
62582;SDS011;48641;51.676;5.808;2023-05-07T07:23:43;3.63;;;1.50;;
62582;SDS011;48641;51.676;5.808;2023-05-07T07:26:08;3.92;;;1.73;;
62582;SDS011;48641;51.676;5.808;2023-05-07T07:28:34;3.00;;;1.63;;
62582;SDS011;48641;51.676;5.808;2023-05-07T07:31:00;4.82;;;1.80;;
62582;SDS011;48641;51.676;5.808;2023-05-07T07:33:25;3.00;;;1.67;;
62582;SDS011;48641;51.676;5.808;2023-05-07T07:35:51;3.20;;;1.65;;
62582;SDS011;48641;51.676;5.808;2023-05-07T07:38:17;2.85;;;1.60;;
62582;SDS011;48641;51.676;5.808;2023-05-07T07:40:42;2.67;;;1.50;;
62582;SDS011;48641;51.676;5.808;2023-05-07T07:43:09;3.38;;;1.60;;
62582;SDS011;48641;51.676;5.808;2023-05-07T07:45:34;3.05;;;1.52;;
62582;SDS011;48641;51.676;5.808;2023-05-07T07:48:00;3.63;;;1.70;;
62582;SDS011;48641;51.676;5.808;2023-05-07T07:50:25;3.10;;;1.50;;
62582;SDS011;48641;51.676;5.808;2023-05-07T07:52:51;2.97;;;1.50;;
62582;SDS011;48641;51.676;5.808;2023-05-07T07:55:19;3.03;;;1.50;;
62582;SDS011;48641;51.676;5.808;2023-05-07T07:57:47;3.83;;;1.60;;
62582;SDS011;48641;51.676;5.808;2023-05-07T08:00:14;3.15;;;1.55;;
62582;SDS011;48641;51.676;5.808;2023-05-07T08:02:40;3.00;;;1.63;;
62582;SDS011;48641;51.676;5.808;2023-05-07T08:05:06;3.50;;;1.50;;
62582;SDS011;48641;51.676;5.808;2023-05-07T08:07:32;5.00;;;1.90;;
62582;SDS011;48641;51.676;5.808;2023-05-07T08:09:58;3.05;;;1.50;;
62582;SDS011;48641;51.676;5.808;2023-05-07T08:12:23;3.13;;;1.58;;
62582;SDS011;48641;51.676;5.808;2023-05-07T08:14:49;3.53;;;1.55;;
62582;SDS011;48641;51.676;5.808;2023-05-07T08:17:15;2.97;;;1.60;;
62582;SDS011;48641;51.676;5.808;2023-05-07T08:19:41;2.83;;;1.50;;
62582;SDS011;48641;51.676;5.808;2023-05-07T08:22:08;3.25;;;1.63;;
62582;SDS011;48641;51.676;5.808;2023-05-07T08:24:34;3.28;;;1.70;;
62582;SDS011;48641;51.676;5.808;2023-05-07T08:27:00;3.40;;;1.65;;
62582;SDS011;48641;51.676;5.808;2023-05-07T08:29:25;3.40;;;1.75;;
62582;SDS011;48641;51.676;5.808;2023-05-07T08:31:51;4.20;;;1.70;;
62582;SDS011;48641;51.676;5.808;2023-05-07T08:34:16;3.08;;;1.50;;
62582;SDS011;48641;51.676;5.808;2023-05-07T08:36:42;2.53;;;1.50;;
62582;SDS011;48641;51.676;5.808;2023-05-07T08:39:07;2.88;;;1.40;;
62582;SDS011;48641;51.676;5.808;2023-05-07T08:41:34;4.05;;;1.90;;
62582;SDS011;48641;51.676;5.808;2023-05-07T08:43:59;3.47;;;1.65;;
62582;SDS011;48641;51.676;5.808;2023-05-07T08:46:28;2.70;;;1.63;;
62582;SDS011;48641;51.676;5.808;2023-05-07T08:48:56;2.90;;;1.50;;
62582;SDS011;48641;51.676;5.808;2023-05-07T08:51:22;3.10;;;1.55;;
62582;SDS011;48641;51.676;5.808;2023-05-07T08:53:48;3.20;;;1.70;;
62582;SDS011;48641;51.676;5.808;2023-05-07T08:56:15;3.22;;;1.60;;
62582;SDS011;48641;51.676;5.808;2023-05-07T08:58:42;3.35;;;1.60;;
62582;SDS011;48641;51.676;5.808;2023-05-07T09:01:09;3.08;;;1.60;;
62582;SDS011;48641;51.676;5.808;2023-05-07T09:06:04;2.97;;;1.40;;
62582;SDS011;48641;51.676;5.808;2023-05-07T09:08:29;3.20;;;1.60;;
62582;SDS011;48641;51.676;5.808;2023-05-07T09:10:57;3.08;;;1.63;;
62582;SDS011;48641;51.676;5.808;2023-05-07T09:13:22;3.17;;;1.63;;
62582;SDS011;48641;51.676;5.808;2023-05-07T09:15:48;2.80;;;1.50;;
62582;SDS011;48641;51.676;5.808;2023-05-07T09:18:14;3.45;;;1.70;;
62582;SDS011;48641;51.676;5.808;2023-05-07T09:20:41;3.25;;;1.58;;
62582;SDS011;48641;51.676;5.808;2023-05-07T09:23:07;2.92;;;1.70;;
62582;SDS011;48641;51.676;5.808;2023-05-07T09:25:33;3.72;;;1.60;;
62582;SDS011;48641;51.676;5.808;2023-05-07T09:28:00;3.75;;;1.70;;
62582;SDS011;48641;51.676;5.808;2023-05-07T09:30:30;2.67;;;1.50;;
62582;SDS011;48641;51.676;5.808;2023-05-07T09:33:00;3.92;;;1.70;;
62582;SDS011;48641;51.676;5.808;2023-05-07T09:35:29;4.45;;;1.67;;
62582;SDS011;48641;51.676;5.808;2023-05-07T09:37:55;3.03;;;1.33;;
62582;SDS011;48641;51.676;5.808;2023-05-07T09:40:23;4.07;;;1.70;;
62582;SDS011;48641;51.676;5.808;2023-05-07T09:42:52;4.22;;;1.80;;
62582;SDS011;48641;51.676;5.808;2023-05-07T09:45:25;4.32;;;1.75;;
62582;SDS011;48641;51.676;5.808;2023-05-07T09:47:54;3.42;;;1.60;;
62582;SDS011;48641;51.676;5.808;2023-05-07T09:50:22;3.25;;;1.60;;
62582;SDS011;48641;51.676;5.808;2023-05-07T09:52:52;4.07;;;1.80;;
62582;SDS011;48641;51.676;5.808;2023-05-07T09:55:20;3.50;;;1.60;;
62582;SDS011;48641;51.676;5.808;2023-05-07T09:57:47;3.00;;;1.50;;
62582;SDS011;48641;51.676;5.808;2023-05-07T10:00:21;4.00;;;1.40;;
62582;SDS011;48641;51.676;5.808;2023-05-07T10:02:48;3.40;;;1.60;;
62582;SDS011;48641;51.676;5.808;2023-05-07T10:05:16;5.30;;;1.77;;
62582;SDS011;48641;51.676;5.808;2023-05-07T10:07:43;2.67;;;1.50;;
62582;SDS011;48641;51.676;5.808;2023-05-07T10:10:10;4.13;;;1.83;;
62582;SDS011;48641;51.676;5.808;2023-05-07T10:12:38;3.45;;;1.50;;
62582;SDS011;48641;51.676;5.808;2023-05-07T10:15:09;2.78;;;1.60;;
62582;SDS011;48641;51.676;5.808;2023-05-07T10:17:36;3.47;;;1.55;;
62582;SDS011;48641;51.676;5.808;2023-05-07T10:20:04;3.35;;;1.70;;
62582;SDS011;48641;51.676;5.808;2023-05-07T10:22:43;3.05;;;1.40;;
62582;SDS011;48641;51.676;5.808;2023-05-07T10:25:14;3.15;;;1.60;;
62582;SDS011;48641;51.676;5.808;2023-05-07T10:27:43;4.28;;;1.77;;
62582;SDS011;48641;51.676;5.808;2023-05-07T10:30:17;2.72;;;1.40;;
62582;SDS011;48641;51.676;5.808;2023-05-07T10:33:05;3.45;;;1.50;;
62582;SDS011;48641;51.676;5.808;2023-05-07T10:35:43;3.03;;;1.60;;
62582;SDS011;48641;51.676;5.808;2023-05-07T10:38:11;2.92;;;1.52;;
62582;SDS011;48641;51.676;5.808;2023-05-07T10:40:37;2.42;;;1.40;;
62582;SDS011;48641;51.676;5.808;2023-05-07T10:43:04;3.08;;;1.48;;
62582;SDS011;48641;51.676;5.808;2023-05-07T10:45:30;3.25;;;1.50;;
62582;SDS011;48641;51.676;5.808;2023-05-07T10:50:36;2.83;;;1.48;;
62582;SDS011;48641;51.676;5.808;2023-05-07T10:55:47;3.42;;;1.50;;
62582;SDS011;48641;51.676;5.808;2023-05-07T10:58:29;2.88;;;1.35;;
62582;SDS011;48641;51.676;5.808;2023-05-07T11:00:57;3.90;;;1.80;;
62582;SDS011;48641;51.676;5.808;2023-05-07T11:03:24;2.78;;;1.27;;
62582;SDS011;48641;51.676;5.808;2023-05-07T11:11:18;3.47;;;1.63;;
62582;SDS011;48641;51.676;5.808;2023-05-07T11:13:45;4.28;;;1.55;;
62582;SDS011;48641;51.676;5.808;2023-05-07T11:18:50;3.58;;;1.40;;
62582;SDS011;48641;51.676;5.808;2023-05-07T11:21:36;3.05;;;1.35;;
62582;SDS011;48641;51.676;5.808;2023-05-07T11:24:04;2.88;;;1.40;;
62582;SDS011;48641;51.676;5.808;2023-05-07T11:26:31;2.70;;;1.33;;
62582;SDS011;48641;51.676;5.808;2023-05-07T11:29:15;3.17;;;1.40;;
62582;SDS011;48641;51.676;5.808;2023-05-07T11:31:41;2.40;;;1.20;;
62582;SDS011;48641;51.676;5.808;2023-05-07T11:34:07;2.25;;;1.20;;
62582;SDS011;48641;51.676;5.808;2023-05-07T11:36:33;3.20;;;1.50;;
62582;SDS011;48641;51.676;5.808;2023-05-07T11:38:59;2.03;;;1.17;;
62582;SDS011;48641;51.676;5.808;2023-05-07T11:41:42;2.72;;;1.30;;
62582;SDS011;48641;51.676;5.808;2023-05-07T11:44:08;2.63;;;1.40;;
62582;SDS011;48641;51.676;5.808;2023-05-07T11:46:34;2.53;;;1.20;;
62582;SDS011;48641;51.676;5.808;2023-05-07T11:49:00;3.08;;;1.45;;
62582;SDS011;48641;51.676;5.808;2023-05-07T11:51:25;3.33;;;1.40;;
62582;SDS011;48641;51.676;5.808;2023-05-07T11:53:51;2.50;;;1.40;;
62582;SDS011;48641;51.676;5.808;2023-05-07T11:56:17;2.53;;;1.25;;
62582;SDS011;48641;51.676;5.808;2023-05-07T11:58:47;2.10;;;1.23;;
62582;SDS011;48641;51.676;5.808;2023-05-07T12:01:15;3.88;;;1.40;;
62582;SDS011;48641;51.676;5.808;2023-05-07T12:03:41;3.58;;;1.35;;
62582;SDS011;48641;51.676;5.808;2023-05-07T12:06:10;1.92;;;1.08;;
62582;SDS011;48641;51.676;5.808;2023-05-07T12:08:37;3.85;;;1.20;;
62582;SDS011;48641;51.676;5.808;2023-05-07T12:11:06;2.13;;;1.20;;
62582;SDS011;48641;51.676;5.808;2023-05-07T12:13:34;2.40;;;1.20;;
62582;SDS011;48641;51.676;5.808;2023-05-07T12:16:00;2.78;;;1.30;;
62582;SDS011;48641;51.676;5.808;2023-05-07T12:18:28;2.55;;;1.20;;
62582;SDS011;48641;51.676;5.808;2023-05-07T12:20:54;3.25;;;1.35;;
62582;SDS011;48641;51.676;5.808;2023-05-07T12:23:21;2.97;;;1.20;;
62582;SDS011;48641;51.676;5.808;2023-05-07T12:25:47;2.15;;;1.10;;
62582;SDS011;48641;51.676;5.808;2023-05-07T12:28:13;2.22;;;1.05;;
62582;SDS011;48641;51.676;5.808;2023-05-07T12:30:40;2.78;;;1.05;;
62582;SDS011;48641;51.676;5.808;2023-05-07T12:33:07;1.88;;;1.00;;
62582;SDS011;48641;51.676;5.808;2023-05-07T12:35:40;1.58;;;1.00;;
62582;SDS011;48641;51.676;5.808;2023-05-07T12:38:10;2.20;;;1.00;;
62582;SDS011;48641;51.676;5.808;2023-05-07T12:40:43;1.70;;;1.00;;
62582;SDS011;48641;51.676;5.808;2023-05-07T12:43:17;1.90;;;1.08;;
62582;SDS011;48641;51.676;5.808;2023-05-07T12:45:44;1.98;;;1.00;;
62582;SDS011;48641;51.676;5.808;2023-05-07T12:48:11;2.83;;;1.10;;
62582;SDS011;48641;51.676;5.808;2023-05-07T12:50:37;1.88;;;1.13;;
62582;SDS011;48641;51.676;5.808;2023-05-07T12:53:04;2.22;;;1.10;;
62582;SDS011;48641;51.676;5.808;2023-05-07T12:58:07;2.28;;;0.90;;
62582;SDS011;48641;51.676;5.808;2023-05-07T13:00:36;1.60;;;0.82;;
62582;SDS011;48641;51.676;5.808;2023-05-07T13:03:02;2.70;;;1.30;;
62582;SDS011;48641;51.676;5.808;2023-05-07T13:05:28;1.73;;;0.90;;
62582;SDS011;48641;51.676;5.808;2023-05-07T13:07:57;2.00;;;1.00;;
62582;SDS011;48641;51.676;5.808;2023-05-07T13:12:49;2.10;;;1.10;;
62582;SDS011;48641;51.676;5.808;2023-05-07T13:15:15;1.83;;;1.10;;
62582;SDS011;48641;51.676;5.808;2023-05-07T13:17:42;2.30;;;1.13;;
62582;SDS011;48641;51.676;5.808;2023-05-07T13:20:11;1.90;;;1.10;;
62582;SDS011;48641;51.676;5.808;2023-05-07T13:22:37;1.88;;;0.95;;
62582;SDS011;48641;51.676;5.808;2023-05-07T13:25:04;2.10;;;0.88;;
62582;SDS011;48641;51.676;5.808;2023-05-07T13:27:30;1.73;;;1.00;;
62582;SDS011;48641;51.676;5.808;2023-05-07T13:29:56;1.83;;;0.82;;
62582;SDS011;48641;51.676;5.808;2023-05-07T13:32:22;1.63;;;0.88;;
62582;SDS011;48641;51.676;5.808;2023-05-07T13:34:47;2.50;;;0.95;;
62582;SDS011;48641;51.676;5.808;2023-05-07T13:37:13;1.67;;;1.00;;
62582;SDS011;48641;51.676;5.808;2023-05-07T13:39:39;1.52;;;0.95;;
62582;SDS011;48641;51.676;5.808;2023-05-07T13:42:05;2.13;;;1.10;;
62582;SDS011;48641;51.676;5.808;2023-05-07T13:44:31;1.85;;;1.10;;
62582;SDS011;48641;51.676;5.808;2023-05-07T13:46:58;1.95;;;1.20;;
62582;SDS011;48641;51.676;5.808;2023-05-07T13:49:23;1.73;;;1.00;;
62582;SDS011;48641;51.676;5.808;2023-05-07T13:51:49;1.73;;;1.05;;
62582;SDS011;48641;51.676;5.808;2023-05-07T13:54:15;1.48;;;0.98;;
62582;SDS011;48641;51.676;5.808;2023-05-07T13:56:40;1.88;;;0.88;;
62582;SDS011;48641;51.676;5.808;2023-05-07T13:59:06;2.75;;;1.10;;
62582;SDS011;48641;51.676;5.808;2023-05-07T14:01:33;1.65;;;0.90;;
62582;SDS011;48641;51.676;5.808;2023-05-07T14:03:58;2.10;;;0.93;;
62582;SDS011;48641;51.676;5.808;2023-05-07T14:06:24;2.38;;;1.10;;
62582;SDS011;48641;51.676;5.808;2023-05-07T14:08:50;1.67;;;0.90;;
62582;SDS011;48641;51.676;5.808;2023-05-07T14:11:18;2.45;;;1.10;;
62582;SDS011;48641;51.676;5.808;2023-05-07T14:13:44;2.67;;;1.08;;
62582;SDS011;48641;51.676;5.808;2023-05-07T14:16:09;1.52;;;0.95;;
62582;SDS011;48641;51.676;5.808;2023-05-07T14:18:35;2.20;;;1.05;;
62582;SDS011;48641;51.676;5.808;2023-05-07T14:21:02;1.83;;;0.88;;
62582;SDS011;48641;51.676;5.808;2023-05-07T14:23:27;2.42;;;1.00;;
62582;SDS011;48641;51.676;5.808;2023-05-07T14:25:53;2.00;;;1.10;;
62582;SDS011;48641;51.676;5.808;2023-05-07T14:28:19;1.60;;;0.93;;
62582;SDS011;48641;51.676;5.808;2023-05-07T14:30:44;1.27;;;0.90;;
62582;SDS011;48641;51.676;5.808;2023-05-07T14:33:10;1.83;;;1.10;;
62582;SDS011;48641;51.676;5.808;2023-05-07T14:35:35;2.30;;;1.20;;
62582;SDS011;48641;51.676;5.808;2023-05-07T14:38:01;2.10;;;0.95;;
62582;SDS011;48641;51.676;5.808;2023-05-07T14:40:27;1.27;;;0.82;;
62582;SDS011;48641;51.676;5.808;2023-05-07T14:42:52;3.13;;;1.10;;
62582;SDS011;48641;51.676;5.808;2023-05-07T14:45:20;1.92;;;0.80;;
62582;SDS011;48641;51.676;5.808;2023-05-07T14:47:46;2.25;;;1.10;;
62582;SDS011;48641;51.676;5.808;2023-05-07T14:50:12;1.98;;;0.90;;
62582;SDS011;48641;51.676;5.808;2023-05-07T14:52:37;2.20;;;0.88;;
62582;SDS011;48641;51.676;5.808;2023-05-07T14:55:03;1.73;;;1.00;;
62582;SDS011;48641;51.676;5.808;2023-05-07T14:57:29;1.52;;;0.80;;
62582;SDS011;48641;51.676;5.808;2023-05-07T14:59:57;1.85;;;0.93;;
62582;SDS011;48641;51.676;5.808;2023-05-07T15:02:23;2.70;;;1.02;;
62582;SDS011;48641;51.676;5.808;2023-05-07T15:04:49;2.08;;;1.00;;